createdAt,value
2023-03-05T00:01:09.867Z,4.31
2023-03-05T00:03:37.220Z,4.15
2023-03-05T00:06:04.204Z,4.26
2023-03-05T00:08:31.920Z,4.35
2023-03-05T00:11:00.302Z,4.35
2023-03-05T00:13:27.164Z,4.15
2023-03-05T00:15:54.150Z,4.28
2023-03-05T00:18:21.869Z,4.36
2023-03-05T00:20:49.364Z,4.36
2023-03-05T00:23:16.705Z,4.32
2023-03-05T00:25:43.655Z,4.18
2023-03-05T00:28:10.639Z,4.19
2023-03-05T00:30:37.293Z,4.31
2023-03-05T00:33:04.258Z,4.34
2023-03-05T00:35:31.126Z,4.27
2023-03-05T00:37:58.275Z,4.15
2023-03-05T00:40:25.088Z,4.33
2023-03-05T00:42:51.978Z,4.25
2023-03-05T00:45:18.744Z,4.20
2023-03-05T00:47:45.427Z,4.12
2023-03-05T00:50:12.291Z,4.18
2023-03-05T00:52:39.138Z,3.88
2023-03-05T00:55:06.293Z,4.19
2023-03-05T00:57:33.016Z,4.20
2023-03-05T00:59:59.738Z,4.29
2023-03-05T01:02:26.607Z,4.14
2023-03-05T01:04:53.428Z,4.16
2023-03-05T01:07:20.128Z,3.80
2023-03-05T01:09:47.012Z,3.83
2023-03-05T01:12:13.677Z,3.94
2023-03-05T01:14:40.381Z,4.03
2023-03-05T01:17:08.059Z,4.28
2023-03-05T01:19:34.938Z,3.82
2023-03-05T01:22:01.577Z,4.20
2023-03-05T01:24:28.340Z,4.17
2023-03-05T01:26:55.195Z,4.16
2023-03-05T01:29:21.881Z,4.16
2023-03-05T01:31:48.617Z,4.20
2023-03-05T01:34:15.985Z,4.16
2023-03-05T01:36:42.691Z,4.16
2023-03-05T01:39:09.596Z,4.13
2023-03-05T01:41:36.557Z,4.13
2023-03-05T01:44:03.465Z,3.69
2023-03-05T01:46:38.918Z,4.10
2023-03-05T01:49:27.855Z,4.04
2023-03-05T01:52:03.304Z,3.99
2023-03-05T01:54:35.284Z,3.88
2023-03-05T01:57:09.712Z,3.91
2023-03-05T01:59:39.270Z,3.79
2023-03-05T02:02:08.015Z,3.76
2023-03-05T02:04:43.312Z,3.79
2023-03-05T02:07:11.742Z,3.68
2023-03-05T02:09:40.320Z,3.73
2023-03-05T02:12:08.285Z,3.81
2023-03-05T02:14:35.903Z,3.75
2023-03-05T02:17:02.828Z,3.61
2023-03-05T02:19:29.597Z,3.76
2023-03-05T02:21:56.369Z,3.58
2023-03-05T02:24:36.590Z,3.73
2023-03-05T02:27:05.007Z,3.74
2023-03-05T02:29:33.801Z,3.61
2023-03-05T02:32:01.829Z,3.68
2023-03-05T02:34:28.624Z,3.54
2023-03-05T02:36:55.643Z,3.66
2023-03-05T02:39:22.669Z,3.36
2023-03-05T02:41:49.504Z,3.61
2023-03-05T02:44:16.201Z,3.46
2023-03-05T02:46:43.124Z,3.46
2023-03-05T02:49:09.959Z,3.65
2023-03-05T02:51:36.637Z,3.52
2023-03-05T02:54:03.563Z,3.67
2023-03-05T02:56:30.250Z,3.70
2023-03-05T02:58:56.955Z,3.65
2023-03-05T03:01:23.854Z,3.69
2023-03-05T03:03:50.548Z,3.63
2023-03-05T03:06:17.185Z,3.72
2023-03-05T03:08:43.955Z,3.54
2023-03-05T03:11:14.755Z,3.72
2023-03-05T03:13:41.987Z,3.77
2023-03-05T03:16:13.062Z,3.77
2023-03-05T03:18:39.965Z,3.80
2023-03-05T03:21:07.085Z,3.55
2023-03-05T03:23:34.536Z,3.80
2023-03-05T03:26:01.272Z,3.64
2023-03-05T03:28:27.964Z,3.68
2023-03-05T03:30:54.825Z,3.54
2023-03-05T03:33:21.545Z,3.48
2023-03-05T03:35:48.249Z,3.49
2023-03-05T03:38:15.216Z,3.38
2023-03-05T03:40:42.456Z,3.21
2023-03-05T03:43:09.417Z,3.13
2023-03-05T03:45:39.905Z,3.37
2023-03-05T03:48:06.543Z,3.45
2023-03-05T03:50:33.275Z,3.43
2023-03-05T03:53:00.124Z,3.23
2023-03-05T03:55:26.939Z,3.37
2023-03-05T03:57:53.697Z,3.34
2023-03-05T04:00:21.045Z,3.33
2023-03-05T04:02:47.900Z,3.35
2023-03-05T04:05:14.643Z,3.33
2023-03-05T04:07:41.547Z,3.25
2023-03-05T04:10:09.045Z,3.25
2023-03-05T04:12:35.748Z,3.22
2023-03-05T04:15:02.532Z,3.25
2023-03-05T04:17:29.177Z,3.13
2023-03-05T04:19:55.849Z,3.23
2023-03-05T04:22:22.895Z,3.31
2023-03-05T04:24:49.893Z,3.39
2023-03-05T04:27:16.538Z,3.46
2023-03-05T04:29:43.320Z,3.29
2023-03-05T04:32:10.483Z,3.44
2023-03-05T04:34:38.069Z,3.45
2023-03-05T04:37:04.850Z,3.25
2023-03-05T04:39:31.845Z,3.37
2023-03-05T04:41:58.533Z,3.20
2023-03-05T04:44:26.144Z,3.26
2023-03-05T04:46:53.009Z,3.30
2023-03-05T04:49:19.649Z,2.80
2023-03-05T04:51:46.447Z,3.15
2023-03-05T04:54:13.091Z,3.32
2023-03-05T04:56:39.797Z,3.40
2023-03-05T04:59:06.632Z,3.24
2023-03-05T05:01:35.215Z,3.30
2023-03-05T05:04:02.252Z,3.41
2023-03-05T05:06:29.149Z,3.31
2023-03-05T05:08:55.848Z,3.16
2023-03-05T05:11:22.532Z,3.30
2023-03-05T05:13:49.384Z,3.33
2023-03-05T05:16:16.337Z,3.18
2023-03-05T05:18:43.086Z,3.17
2023-03-05T05:21:12.083Z,3.38
2023-03-05T05:23:39.422Z,3.37
2023-03-05T05:26:07.865Z,3.40
2023-03-05T05:28:35.837Z,3.43
2023-03-05T05:31:07.525Z,3.38
2023-03-05T05:33:34.242Z,2.94
2023-03-05T05:36:03.753Z,3.18
2023-03-05T05:38:30.518Z,3.29
2023-03-05T05:41:11.964Z,3.18
2023-03-05T05:43:39.219Z,3.19
2023-03-05T05:46:08.998Z,3.26
2023-03-05T05:48:36.607Z,3.30
2023-03-05T05:51:12.515Z,3.27
2023-03-05T05:53:39.769Z,3.30
2023-03-05T05:56:09.169Z,3.29
2023-03-05T05:58:37.965Z,3.29
2023-03-05T06:01:16.681Z,3.30
2023-03-05T06:03:43.723Z,3.24
2023-03-05T06:06:12.100Z,3.24
2023-03-05T06:08:39.433Z,3.19
2023-03-05T06:11:07.196Z,3.22
2023-03-05T06:13:34.446Z,3.14
2023-03-05T06:16:05.221Z,3.06
2023-03-05T06:18:33.893Z,3.10
2023-03-05T06:21:05.352Z,3.11
2023-03-05T06:23:32.729Z,3.09
2023-03-05T06:26:01.084Z,3.08
2023-03-05T06:28:28.982Z,3.01
2023-03-05T06:31:21.964Z,3.01
2023-03-05T06:33:49.876Z,3.03
2023-03-05T06:36:19.027Z,3.06
2023-03-05T06:38:48.370Z,3.07
2023-03-05T06:41:18.457Z,3.06
2023-03-05T06:43:47.759Z,2.86
2023-03-05T06:46:19.935Z,3.06
2023-03-05T06:48:47.529Z,2.82
2023-03-05T06:51:23.380Z,3.09
2023-03-05T06:53:51.160Z,2.84
2023-03-05T06:56:19.052Z,3.11
2023-03-05T06:58:48.295Z,3.15
2023-03-05T07:01:15.823Z,3.00
2023-03-05T07:03:42.921Z,3.10
2023-03-05T07:06:13.098Z,3.28
2023-03-05T07:08:39.998Z,3.32
2023-03-05T07:11:11.892Z,3.37
2023-03-05T07:13:38.776Z,3.39
2023-03-05T07:16:10.832Z,3.40
2023-03-05T07:18:37.593Z,3.25
2023-03-05T07:21:06.330Z,3.61
2023-03-05T07:23:34.269Z,3.62
2023-03-05T07:26:02.591Z,3.73
2023-03-05T07:28:29.387Z,3.73
2023-03-05T07:31:01.608Z,3.75
2023-03-05T07:33:28.903Z,3.91
2023-03-05T07:35:56.867Z,3.89
2023-03-05T07:38:23.851Z,4.00
2023-03-05T07:40:51.002Z,4.11
2023-03-05T07:43:18.095Z,4.19
2023-03-05T07:45:46.552Z,4.28
2023-03-05T07:48:17.102Z,4.28
2023-03-05T07:50:44.045Z,4.41
2023-03-05T07:53:11.239Z,4.49
2023-03-05T07:55:45.692Z,4.55
2023-03-05T07:58:13.752Z,4.66
2023-03-05T08:00:41.078Z,4.76
2023-03-05T08:03:08.242Z,4.87
2023-03-05T08:05:35.072Z,4.97
2023-03-05T08:08:01.724Z,4.91
2023-03-05T08:10:28.516Z,5.07
2023-03-05T08:12:55.389Z,4.87
2023-03-05T08:15:22.237Z,5.19
2023-03-05T08:17:48.973Z,5.07
2023-03-05T08:20:15.809Z,5.23
2023-03-05T08:22:42.678Z,5.30
2023-03-05T08:25:09.706Z,5.31
2023-03-05T08:27:45.100Z,5.03
2023-03-05T08:30:18.484Z,5.41
2023-03-05T08:32:45.400Z,5.37
2023-03-05T08:35:12.407Z,5.45
2023-03-05T08:37:39.225Z,5.48
2023-03-05T08:40:06.757Z,5.39
2023-03-05T08:42:33.508Z,5.50
2023-03-05T08:45:00.214Z,5.47
2023-03-05T08:47:27.535Z,5.26
2023-03-05T08:49:58.459Z,5.49
2023-03-05T08:52:27.474Z,5.67
2023-03-05T08:54:54.386Z,5.45
2023-03-05T08:57:21.239Z,5.74
2023-03-05T08:59:48.559Z,5.71
2023-03-05T09:02:15.320Z,5.80
2023-03-05T09:04:42.067Z,5.93
2023-03-05T09:07:08.991Z,5.93
2023-03-05T09:09:36.588Z,5.89
2023-03-05T09:12:03.512Z,6.03
2023-03-05T09:14:30.423Z,5.94
2023-03-05T09:16:57.869Z,6.18
2023-03-05T09:19:25.022Z,6.25
2023-03-05T09:21:52.168Z,6.25
2023-03-05T09:24:18.975Z,6.23
2023-03-05T09:26:45.704Z,6.35
2023-03-05T09:29:12.644Z,6.34
2023-03-05T09:31:39.966Z,6.53
2023-03-05T09:34:08.261Z,6.61
2023-03-05T09:36:35.252Z,6.83
2023-03-05T09:39:04.110Z,6.73
2023-03-05T09:41:39.776Z,6.73
2023-03-05T09:44:31.332Z,6.42
2023-03-05T09:47:32.400Z,6.05
2023-03-05T09:50:04.050Z,5.73
2023-03-05T09:52:40.074Z,5.57
2023-03-05T10:13:38.506Z,5.91
2023-03-05T10:16:43.528Z,6.02
2023-03-05T10:19:46.248Z,6.03
2023-03-05T10:22:28.071Z,5.96
2023-03-05T10:25:20.697Z,5.92
2023-03-05T10:27:56.949Z,5.93
2023-03-05T10:30:29.303Z,6.12
2023-03-05T10:33:20.662Z,6.29
2023-03-05T10:36:11.249Z,6.36
2023-03-05T10:38:40.669Z,6.60
2023-03-05T10:41:32.341Z,6.30
2023-03-05T10:44:09.752Z,6.85
2023-03-05T10:46:38.888Z,6.84
2023-03-05T10:49:20.479Z,7.01
2023-03-05T10:52:06.858Z,7.17
2023-03-05T10:54:35.928Z,7.20
2023-03-05T10:57:20.594Z,7.12
2023-03-05T11:00:01.213Z,7.28
2023-03-05T11:02:28.238Z,6.75
2023-03-05T11:04:54.961Z,7.25
2023-03-05T11:07:22.724Z,7.51
2023-03-05T11:10:06.829Z,7.51
2023-03-05T11:12:39.048Z,7.26
2023-03-05T11:15:15.254Z,7.42
2023-03-05T11:18:03.079Z,7.16
2023-03-05T11:20:37.428Z,7.03
2023-03-05T11:23:11.989Z,7.28
2023-03-05T11:26:02.316Z,7.38
2023-03-05T11:28:41.164Z,7.43
2023-03-05T11:31:21.906Z,7.44
2023-03-05T11:34:03.348Z,7.50
2023-03-05T11:36:42.583Z,7.55
2023-03-05T11:39:17.652Z,7.68
2023-03-05T11:41:49.495Z,7.61
2023-03-05T11:44:43.043Z,7.51
2023-03-05T11:47:21.889Z,7.82
2023-03-05T11:49:52.401Z,7.88
2023-03-05T11:52:25.105Z,7.93
2023-03-05T11:55:11.357Z,7.96
2023-03-05T11:58:08.606Z,7.95
2023-03-05T12:00:39.091Z,7.88
2023-03-05T12:03:14.264Z,7.88
2023-03-05T12:05:46.639Z,7.88
2023-03-05T12:08:17.467Z,7.92
2023-03-05T12:10:44.406Z,7.79
2023-03-05T12:13:33.705Z,8.04
2023-03-05T12:16:20.223Z,8.06
2023-03-05T12:18:58.364Z,8.09
2023-03-05T12:21:38.047Z,8.08
2023-03-05T12:24:27.455Z,8.04
2023-03-05T12:27:04.379Z,7.95
2023-03-05T12:29:39.875Z,7.88
2023-03-05T12:32:28.973Z,7.06
2023-03-05T12:35:22.360Z,7.60
2023-03-05T12:37:51.915Z,7.63
2023-03-05T12:40:29.572Z,7.66
2023-03-05T12:42:59.481Z,7.77
2023-03-05T12:45:30.804Z,7.87
2023-03-05T12:47:57.648Z,7.95
2023-03-05T12:50:27.208Z,8.05
2023-03-05T12:52:54.971Z,8.17
2023-03-05T12:55:33.589Z,8.29
2023-03-05T12:58:05.190Z,8.29
2023-03-05T13:00:43.485Z,8.02
2023-03-05T13:03:24.372Z,8.04
2023-03-05T13:05:54.733Z,7.89
2023-03-05T13:08:35.490Z,7.84
2023-03-05T13:11:03.389Z,7.73
2023-03-05T13:13:34.978Z,7.69
2023-03-05T13:16:02.781Z,7.64
2023-03-05T13:18:32.917Z,7.48
2023-03-05T13:21:08.896Z,7.62
2023-03-05T13:23:35.923Z,7.39
2023-03-05T13:26:18.974Z,7.50
2023-03-05T13:29:19.332Z,7.50
2023-03-05T13:32:04.451Z,7.52
2023-03-05T13:34:46.598Z,7.54
2023-03-05T13:37:14.073Z,7.70
2023-03-05T13:39:49.119Z,7.75
2023-03-05T13:42:32.558Z,7.59
2023-03-05T13:45:20.655Z,7.72
2023-03-05T13:47:59.587Z,7.83
2023-03-05T13:50:34.712Z,7.80
2023-03-05T13:53:16.004Z,7.87
2023-03-05T13:55:42.925Z,7.98
2023-03-05T13:58:55.003Z,8.14
2023-03-05T14:01:33.062Z,8.15
2023-03-05T14:04:23.787Z,8.05
2023-03-05T14:07:06.966Z,8.06
2023-03-05T14:09:39.549Z,8.02
2023-03-05T14:12:22.344Z,7.88
2023-03-05T14:14:49.558Z,7.91
2023-03-05T14:17:39.538Z,7.86
2023-03-05T14:20:19.184Z,7.94
2023-03-05T14:22:50.490Z,7.62
2023-03-05T14:25:39.857Z,7.70
2023-03-05T14:28:19.050Z,7.85
2023-03-05T14:30:47.705Z,7.86
2023-03-05T14:33:15.090Z,7.74
2023-03-05T14:35:49.416Z,7.83
2023-03-05T14:38:23.579Z,7.90
2023-03-05T14:40:50.960Z,7.82
2023-03-05T14:43:17.812Z,7.76
2023-03-05T14:45:44.821Z,7.91
2023-03-05T14:48:13.746Z,7.84
2023-03-05T14:50:47.140Z,7.90
2023-03-05T14:53:18.079Z,7.69
2023-03-05T14:55:56.166Z,7.97
2023-03-05T14:58:28.753Z,7.92
2023-03-05T15:00:55.778Z,7.79
2023-03-05T15:03:23.511Z,7.91
2023-03-05T15:05:53.775Z,7.87
2023-03-05T15:08:23.772Z,7.83
2023-03-05T15:10:50.457Z,7.61
2023-03-05T15:13:17.825Z,7.63
2023-03-05T15:15:47.022Z,7.53
2023-03-05T15:18:16.533Z,7.56
2023-03-05T15:20:44.182Z,7.57
2023-03-05T15:23:12.801Z,7.31
2023-03-05T15:25:40.362Z,7.38
2023-03-05T15:28:07.712Z,7.19
2023-03-05T15:30:38.027Z,7.19
2023-03-05T15:33:07.960Z,7.07
2023-03-05T15:35:35.403Z,6.94
2023-03-05T15:38:02.230Z,7.05
2023-03-05T15:40:29.577Z,7.02
2023-03-05T15:42:58.134Z,7.00
2023-03-05T15:45:25.203Z,6.89
2023-03-05T15:47:53.160Z,6.97
2023-03-05T15:50:21.620Z,6.86
2023-03-05T15:52:48.569Z,7.00
2023-03-05T15:55:15.302Z,6.99
2023-03-05T15:57:48.028Z,6.94
2023-03-05T16:00:17.861Z,7.10
2023-03-05T16:02:44.638Z,7.01
2023-03-05T16:05:12.016Z,6.92
2023-03-05T16:07:42.020Z,6.96
2023-03-05T16:10:13.703Z,6.86
2023-03-05T16:12:43.062Z,6.75
2023-03-05T16:15:16.610Z,6.83
2023-03-05T16:17:45.519Z,6.87
2023-03-05T16:20:13.275Z,6.76
2023-03-05T16:22:40.385Z,6.69
2023-03-05T16:25:07.496Z,6.63
2023-03-05T16:27:34.778Z,6.63
2023-03-05T16:30:01.862Z,6.79
2023-03-05T16:32:28.757Z,6.68
2023-03-05T16:34:55.550Z,6.57
2023-03-05T16:37:23.984Z,6.53
2023-03-05T16:39:51.898Z,6.44
2023-03-05T16:42:18.864Z,6.19
2023-03-05T16:44:47.459Z,6.12
2023-03-05T16:47:14.312Z,6.08
2023-03-05T16:49:41.139Z,6.20
2023-03-05T16:52:18.443Z,6.12
2023-03-05T16:54:46.389Z,6.15
2023-03-05T16:57:13.161Z,5.79
2023-03-05T16:59:40.261Z,5.87
2023-03-05T17:02:07.102Z,6.03
2023-03-05T17:04:34.023Z,5.91
2023-03-05T17:07:00.712Z,6.00
2023-03-05T17:09:27.510Z,5.87
2023-03-05T17:11:54.938Z,6.04
2023-03-05T17:14:21.973Z,5.79
2023-03-05T17:16:48.784Z,5.96
2023-03-05T17:19:15.917Z,5.75
2023-03-05T17:21:42.920Z,5.91
2023-03-05T17:24:10.893Z,5.70
2023-03-05T17:26:38.212Z,5.76
2023-03-05T17:29:05.627Z,5.73
2023-03-05T17:31:32.459Z,5.51
2023-03-05T17:33:59.440Z,5.56
2023-03-05T17:36:26.531Z,5.40
2023-03-05T17:38:54.144Z,5.40
2023-03-05T17:41:22.051Z,5.37
2023-03-05T17:43:48.900Z,5.22
2023-03-05T17:46:16.191Z,5.29
2023-03-05T17:48:43.111Z,5.22
2023-03-05T17:51:12.936Z,5.20
2023-03-05T17:53:40.333Z,5.13
2023-03-05T17:56:11.455Z,5.12
2023-03-05T17:58:39.183Z,4.71
2023-03-05T18:01:06.992Z,5.02
2023-03-05T18:03:34.144Z,4.56
2023-03-05T18:06:00.943Z,4.96
2023-03-05T18:08:27.929Z,4.79
2023-03-05T18:10:54.868Z,4.87
2023-03-05T18:13:21.940Z,5.00
2023-03-05T18:15:48.705Z,4.89
2023-03-05T18:18:16.792Z,4.94
2023-03-05T18:20:44.402Z,4.83
2023-03-05T18:23:15.296Z,4.65
2023-03-05T18:25:42.582Z,4.53
2023-03-05T18:28:11.805Z,4.73
2023-03-05T18:30:40.713Z,4.61
2023-03-05T18:33:09.096Z,4.62
2023-03-05T18:35:36.853Z,4.56
2023-03-05T18:38:03.517Z,4.46
2023-03-05T18:40:32.804Z,4.42
2023-03-05T18:43:01.443Z,4.36
2023-03-05T18:45:29.056Z,4.31
2023-03-05T18:47:56.886Z,3.97
2023-03-05T18:50:26.338Z,3.76
2023-03-05T18:52:53.801Z,4.11
2023-03-05T18:55:27.460Z,4.15
2023-03-05T18:57:54.719Z,4.09
2023-03-05T19:00:28.021Z,3.94
2023-03-05T19:02:55.690Z,3.99
2023-03-05T19:05:23.153Z,4.02
2023-03-05T19:07:49.804Z,3.88
2023-03-05T19:10:17.732Z,3.73
2023-03-05T19:13:05.750Z,3.62
2023-03-05T19:15:32.998Z,3.86
2023-03-05T19:17:59.778Z,3.75
2023-03-05T19:20:26.538Z,3.65
2023-03-05T19:22:55.823Z,3.71
2023-03-05T19:25:22.734Z,3.35
2023-03-05T19:27:49.585Z,3.71
2023-03-05T19:30:16.681Z,3.66
2023-03-05T19:32:43.554Z,3.62
2023-03-05T19:35:14.919Z,3.63
2023-03-05T19:37:41.894Z,3.60
2023-03-05T19:40:09.448Z,3.58
2023-03-05T19:42:38.104Z,3.45
2023-03-05T19:45:06.452Z,3.50
2023-03-05T19:47:33.112Z,3.49
2023-03-05T19:49:59.847Z,3.37
2023-03-05T19:52:27.795Z,3.42
2023-03-05T19:54:54.559Z,3.47
2023-03-05T19:57:21.270Z,3.53
2023-03-05T19:59:52.182Z,3.32
2023-03-05T20:02:21.698Z,3.38
2023-03-05T20:04:49.506Z,3.42
2023-03-05T20:07:16.835Z,3.39
2023-03-05T20:09:43.697Z,3.41
2023-03-05T20:12:10.896Z,3.15
2023-03-05T20:14:38.255Z,3.39
2023-03-05T20:17:04.997Z,3.45
2023-03-05T20:19:31.891Z,3.22
2023-03-05T20:21:58.890Z,3.45
2023-03-05T20:24:25.558Z,3.30
2023-03-05T20:26:52.436Z,3.44
2023-03-05T20:29:19.362Z,3.30
2023-03-05T20:31:46.847Z,3.30
2023-03-05T20:34:15.775Z,3.50
2023-03-05T20:36:43.010Z,3.36
2023-03-05T20:39:10.187Z,3.52
2023-03-05T20:41:38.905Z,3.59
2023-03-05T20:44:07.228Z,3.59
2023-03-05T20:46:36.699Z,3.46
2023-03-05T20:49:04.608Z,3.37
2023-03-05T20:51:36.990Z,3.19
2023-03-05T20:54:06.852Z,3.65
2023-03-05T20:56:35.193Z,3.66
2023-03-05T20:59:05.464Z,3.68
2023-03-05T21:01:34.012Z,3.67
2023-03-05T21:04:02.127Z,3.39
2023-03-05T21:06:30.469Z,3.66
2023-03-05T21:08:57.940Z,3.67
2023-03-05T21:11:24.914Z,3.62
2023-03-05T21:13:51.819Z,3.63
2023-03-05T21:16:21.388Z,3.66
2023-03-05T21:18:48.863Z,3.54
2023-03-05T21:21:15.605Z,3.52
2023-03-05T21:23:42.568Z,3.57
2023-03-05T21:26:09.301Z,3.49
2023-03-05T21:28:36.211Z,3.61
2023-03-05T21:31:09.037Z,3.69
2023-03-05T21:33:36.585Z,3.52
2023-03-05T21:36:05.582Z,3.69
2023-03-05T21:38:36.293Z,3.53
2023-03-05T21:41:04.399Z,3.65
2023-03-05T21:43:31.847Z,3.61
2023-03-05T21:46:01.127Z,3.72
2023-03-05T21:48:28.191Z,3.27
2023-03-05T21:50:55.714Z,3.71
2023-03-05T21:53:23.319Z,3.60
2023-03-05T21:56:11.044Z,3.71
2023-03-05T21:58:37.763Z,3.65
2023-03-05T22:01:04.788Z,3.33
2023-03-05T22:03:31.685Z,3.68
2023-03-05T22:05:58.471Z,3.75
2023-03-05T22:08:25.318Z,3.57
2023-03-05T22:10:52.612Z,3.48
2023-03-05T22:13:20.587Z,3.53
2023-03-05T22:15:59.580Z,3.73
2023-03-05T22:18:29.354Z,3.72
2023-03-05T22:20:56.953Z,3.68
2023-03-05T22:23:27.407Z,3.71
2023-03-05T22:25:58.801Z,3.64
2023-03-05T22:28:26.493Z,3.67
2023-03-05T22:30:53.725Z,3.73
2023-03-05T22:33:23.029Z,3.71
2023-03-05T22:35:50.298Z,3.68
2023-03-05T22:38:17.517Z,3.72
2023-03-05T22:40:46.404Z,3.48
2023-03-05T22:43:14.311Z,3.72
2023-03-05T22:45:41.738Z,3.72
2023-03-05T22:48:11.920Z,3.62
2023-03-05T22:50:39.664Z,3.34
2023-03-05T22:53:06.973Z,3.72
2023-03-05T22:55:33.804Z,3.63
2023-03-05T22:58:00.423Z,3.60
2023-03-05T23:00:27.322Z,3.55
2023-03-05T23:02:54.286Z,3.65
2023-03-05T23:05:21.267Z,3.56
2023-03-05T23:07:48.249Z,3.67
2023-03-05T23:10:18.298Z,3.69
2023-03-05T23:12:50.257Z,3.68
2023-03-05T23:15:22.748Z,3.66
2023-03-05T23:17:50.027Z,3.41
2023-03-05T23:20:20.946Z,3.63
2023-03-05T23:22:49.036Z,3.54
2023-03-05T23:25:16.727Z,3.62
2023-03-05T23:27:43.791Z,3.58
2023-03-05T23:30:19.638Z,3.61
2023-03-05T23:32:58.762Z,3.59
2023-03-05T23:35:32.360Z,3.38
2023-03-05T23:38:00.971Z,3.34
2023-03-05T23:40:48.187Z,3.37
2023-03-05T23:43:17.082Z,3.31
2023-03-05T23:45:48.056Z,3.57
2023-03-05T23:48:16.881Z,3.57
2023-03-05T23:50:46.016Z,3.42
2023-03-05T23:53:20.963Z,3.59
2023-03-05T23:55:48.807Z,3.46
2023-03-05T23:58:16.737Z,3.61
